createdAt,value
2023-02-22T00:01:33.347Z,95871.78
2023-02-22T00:03:59.814Z,95870.44
2023-02-22T00:06:27.265Z,95854.59
2023-02-22T00:08:54.055Z,95847.72
2023-02-22T00:11:20.580Z,95823.56
2023-02-22T00:13:47.599Z,95860.63
2023-02-22T00:16:20.344Z,95848.09
2023-02-22T00:18:47.708Z,95859.50
2023-02-22T00:21:16.584Z,95859.53
2023-02-22T00:23:46.617Z,95856.84
2023-02-22T00:26:18.162Z,95851.22
2023-02-22T00:28:47.997Z,95847.81
2023-02-22T00:31:15.052Z,95840.84
2023-02-22T00:33:42.924Z,95852.00
2023-02-22T00:36:11.300Z,95855.31
2023-02-22T00:38:38.276Z,95829.44
2023-02-22T00:41:05.375Z,95847.06
2023-02-22T00:43:31.828Z,95857.91
2023-02-22T00:45:58.472Z,95840.28
2023-02-22T00:48:25.178Z,95801.75
2023-02-22T00:50:55.096Z,95845.41
2023-02-22T00:53:23.822Z,95855.69
2023-02-22T00:55:50.614Z,95845.59
2023-02-22T00:58:17.107Z,95843.13
2023-02-22T01:00:43.668Z,95838.50
2023-02-22T01:03:13.006Z,95848.56
2023-02-22T01:05:39.484Z,95832.41
2023-02-22T01:08:07.925Z,95841.19
2023-02-22T01:10:35.073Z,95841.88
2023-02-22T01:13:04.870Z,95835.78
2023-02-22T01:15:31.339Z,95840.75
2023-02-22T01:17:59.658Z,95836.09
2023-02-22T01:20:27.666Z,95825.34
2023-02-22T01:22:56.945Z,95816.56
2023-02-22T01:25:26.302Z,95832.06
2023-02-22T01:27:54.723Z,95838.19
2023-02-22T01:30:24.427Z,95833.09
2023-02-22T01:32:51.436Z,95794.53
2023-02-22T01:35:21.064Z,95780.44
2023-02-22T01:37:47.533Z,95797.94
2023-02-22T01:40:24.460Z,95816.34
2023-02-22T01:42:57.728Z,95810.94
2023-02-22T01:45:30.431Z,95824.41
2023-02-22T01:48:01.958Z,95811.41
2023-02-22T01:50:29.315Z,95808.00
2023-02-22T01:52:55.904Z,95811.47
2023-02-22T01:55:22.929Z,95810.38
2023-02-22T01:57:49.614Z,95815.81
2023-02-22T02:00:21.213Z,95819.00
2023-02-22T02:03:06.384Z,95809.84
2023-02-22T02:05:34.588Z,95806.69
2023-02-22T02:08:13.264Z,95802.25
2023-02-22T02:10:42.893Z,95803.50
2023-02-22T02:13:10.134Z,95790.75
2023-02-22T02:15:36.975Z,95781.59
2023-02-22T02:18:09.252Z,95803.19
2023-02-22T02:20:46.353Z,95788.16
2023-02-22T02:23:18.900Z,95794.13
2023-02-22T02:26:04.258Z,95793.78
2023-02-22T02:29:02.217Z,95779.50
2023-02-22T02:31:36.953Z,95784.69
2023-02-22T02:34:32.438Z,95775.22
2023-02-22T02:37:17.365Z,95766.13
2023-02-22T02:40:11.336Z,95758.56
2023-02-22T02:42:55.509Z,95758.44
2023-02-22T02:45:29.307Z,95757.81
2023-02-22T02:47:58.783Z,95733.41
2023-02-22T02:50:31.592Z,95764.13
2023-02-22T02:53:02.922Z,95756.91
2023-02-22T02:55:31.673Z,95742.19
2023-02-22T02:57:59.351Z,95742.66
2023-02-22T03:00:32.515Z,95758.38
2023-02-22T03:03:26.275Z,95740.69
2023-02-22T03:06:10.415Z,95742.31
2023-02-22T03:08:55.315Z,95747.41
2023-02-22T03:11:28.576Z,95739.97
2023-02-22T03:14:14.408Z,95754.19
2023-02-22T03:16:46.097Z,95758.84
2023-02-22T03:19:31.319Z,95743.56
2023-02-22T03:22:08.931Z,95742.78
2023-02-22T03:24:42.404Z,95746.97
2023-02-22T03:27:14.567Z,95715.56
2023-02-22T03:29:48.228Z,95740.22
2023-02-22T03:32:20.584Z,95754.81
2023-02-22T03:34:53.759Z,95748.94
2023-02-22T03:37:25.618Z,95761.03
2023-02-22T03:39:54.917Z,95763.88
2023-02-22T03:42:26.620Z,95753.03
2023-02-22T03:44:57.915Z,95774.63
2023-02-22T03:47:42.055Z,95771.75
2023-02-22T03:50:15.269Z,95776.66
2023-02-22T03:52:44.632Z,95741.84
2023-02-22T03:55:17.692Z,95753.91
2023-02-22T03:57:51.742Z,95767.81
2023-02-22T04:00:22.936Z,95763.19
2023-02-22T04:02:50.540Z,95772.00
2023-02-22T04:05:20.324Z,95767.81
2023-02-22T04:07:48.011Z,95754.34
2023-02-22T04:10:16.349Z,95767.25
2023-02-22T04:12:43.589Z,95761.38
2023-02-22T04:15:13.851Z,95745.47
2023-02-22T04:17:40.344Z,95751.78
2023-02-22T04:20:09.406Z,95758.13
2023-02-22T04:22:44.016Z,95760.03
2023-02-22T04:25:10.905Z,95748.41
2023-02-22T04:27:37.797Z,95744.00
2023-02-22T04:30:05.373Z,95733.59
2023-02-22T04:32:34.682Z,95748.72
2023-02-22T04:35:01.937Z,95739.44
2023-02-22T04:37:29.948Z,95732.66
2023-02-22T04:39:56.865Z,95737.56
2023-02-22T04:42:23.395Z,95743.97
2023-02-22T04:44:49.903Z,95721.72
2023-02-22T04:47:16.469Z,95740.25
2023-02-22T04:49:43.892Z,95737.78
2023-02-22T04:52:10.330Z,95744.09
2023-02-22T04:54:38.526Z,95738.78
2023-02-22T04:57:04.992Z,95738.09
2023-02-22T04:59:33.499Z,95733.13
2023-02-22T05:02:01.215Z,95714.13
2023-02-22T05:04:27.739Z,95717.53
2023-02-22T05:06:55.147Z,95736.53
2023-02-22T05:09:21.801Z,95718.88
2023-02-22T05:11:48.227Z,95715.50
2023-02-22T05:14:14.823Z,95730.09
2023-02-22T05:16:41.376Z,95715.84
2023-02-22T05:19:08.530Z,95704.41
2023-02-22T05:21:34.973Z,95697.41
2023-02-22T05:24:04.888Z,95714.25
2023-02-22T05:26:31.359Z,95721.38
2023-02-22T05:28:57.822Z,95713.13
2023-02-22T05:31:24.405Z,95716.75
2023-02-22T05:33:50.908Z,95711.53
2023-02-22T05:36:17.441Z,95711.00
2023-02-22T05:38:44.740Z,95698.53
2023-02-22T05:41:12.946Z,95721.13
2023-02-22T05:43:40.509Z,95724.19
2023-02-22T05:46:07.532Z,95704.06
2023-02-22T05:48:34.374Z,95696.19
2023-02-22T05:51:00.924Z,95716.41
2023-02-22T05:53:27.712Z,95696.19
2023-02-22T05:55:54.150Z,95715.03
2023-02-22T05:58:20.938Z,95693.91
2023-02-22T06:00:47.576Z,95691.28
2023-02-22T06:03:14.016Z,95716.50
2023-02-22T06:05:41.674Z,95702.38
2023-02-22T06:08:08.998Z,95707.59
2023-02-22T06:10:35.433Z,95702.38
2023-02-22T06:13:03.146Z,95707.59
2023-02-22T06:15:29.709Z,95677.63
2023-02-22T06:17:58.636Z,95707.34
2023-02-22T06:20:26.880Z,95711.75
2023-02-22T06:22:55.109Z,95707.78
2023-02-22T06:25:24.321Z,95718.44
2023-02-22T06:27:51.182Z,95713.25
2023-02-22T06:30:20.626Z,95716.75
2023-02-22T06:32:47.181Z,95695.38
2023-02-22T06:35:15.091Z,95700.91
2023-02-22T06:37:41.546Z,95725.44
2023-02-22T06:40:08.942Z,95725.00
2023-02-22T06:42:35.385Z,95729.28
2023-02-22T06:45:01.856Z,95708.03
2023-02-22T06:47:28.563Z,95725.44
2023-02-22T06:49:56.422Z,95729.16
2023-02-22T06:52:23.547Z,95740.81
2023-02-22T06:54:50.388Z,95734.59
2023-02-22T06:57:17.426Z,95732.56
2023-02-22T06:59:44.128Z,95732.22
2023-02-22T07:02:12.328Z,95736.28
2023-02-22T07:04:41.709Z,95735.16
2023-02-22T07:07:09.736Z,95735.25
2023-02-22T07:09:36.230Z,95724.19
2023-02-22T07:12:02.744Z,95741.47
2023-02-22T07:14:29.203Z,95722.44
2023-02-22T07:16:55.641Z,95731.44
2023-02-22T07:19:22.091Z,95730.19
2023-02-22T07:21:48.520Z,95745.22
2023-02-22T07:24:14.968Z,95720.91
2023-02-22T07:26:42.846Z,95735.97
2023-02-22T07:29:11.295Z,95732.34
2023-02-22T07:31:38.817Z,95734.59
2023-02-22T07:34:05.341Z,95724.63
2023-02-22T07:36:31.891Z,95726.31
2023-02-22T07:38:58.360Z,95739.03
2023-02-22T07:41:25.722Z,95708.06
2023-02-22T07:43:52.172Z,95742.22
2023-02-22T07:46:18.693Z,95713.31
2023-02-22T07:48:45.132Z,95735.13
2023-02-22T07:51:15.732Z,95730.56
2023-02-22T07:53:42.388Z,95737.03
2023-02-22T07:56:08.896Z,95730.44
2023-02-22T07:58:35.419Z,95725.28
2023-02-22T08:01:04.934Z,95724.16
2023-02-22T08:03:36.522Z,95730.13
2023-02-22T08:06:05.622Z,95705.53
2023-02-22T08:08:32.140Z,95717.50
2023-02-22T08:10:58.626Z,95711.84
2023-02-22T08:13:25.270Z,95724.09
2023-02-22T08:15:53.838Z,95709.31
2023-02-22T08:18:22.219Z,95714.69
2023-02-22T08:20:50.335Z,95710.16
2023-02-22T08:23:18.526Z,95697.28
2023-02-22T08:25:45.622Z,95695.47
2023-02-22T08:28:15.157Z,95704.88
2023-02-22T08:30:43.658Z,95703.09
2023-02-22T08:33:14.495Z,95686.53
2023-02-22T08:35:41.905Z,95706.22
2023-02-22T08:38:15.185Z,95705.97
2023-02-22T08:40:41.649Z,95693.44
2023-02-22T08:43:08.097Z,95702.91
2023-02-22T08:45:34.760Z,95700.00
2023-02-22T08:48:01.181Z,95667.50
2023-02-22T08:50:36.106Z,95693.53
2023-02-22T08:53:04.806Z,95698.00
2023-02-22T08:55:34.340Z,95696.16
2023-02-22T08:58:03.021Z,95690.94
2023-02-22T09:00:33.079Z,95677.78
2023-02-22T09:03:00.726Z,95684.63
2023-02-22T09:05:27.265Z,95687.78
2023-02-22T09:07:53.950Z,95690.38
2023-02-22T09:10:25.659Z,95664.91
2023-02-22T09:12:55.369Z,95676.88
2023-02-22T09:15:23.117Z,95684.34
2023-02-22T09:17:49.565Z,95678.00
2023-02-22T09:20:18.243Z,95682.09
2023-02-22T09:22:46.313Z,95666.56
2023-02-22T09:25:17.036Z,95675.19
2023-02-22T09:27:44.986Z,95665.75
2023-02-22T09:30:40.712Z,95675.63
2023-02-22T09:33:13.413Z,95666.72
2023-02-22T09:35:46.217Z,95666.06
2023-02-22T09:38:15.767Z,95668.47
2023-02-22T09:41:14.194Z,95664.72
2023-02-22T09:44:22.511Z,95662.97
2023-02-22T09:46:49.649Z,95643.53
2023-02-22T09:49:21.514Z,95651.03
2023-02-22T09:52:14.225Z,95651.94
2023-02-22T09:54:45.243Z,95642.66
2023-02-22T09:57:40.589Z,95649.94
2023-02-22T10:00:22.684Z,95639.09
2023-02-22T10:03:11.472Z,95634.22
2023-02-22T10:05:41.798Z,95637.56
2023-02-22T10:08:14.185Z,95634.06
2023-02-22T10:10:45.877Z,95632.97
2023-02-22T10:13:15.262Z,95636.19
2023-02-22T10:16:08.617Z,95632.63
2023-02-22T10:18:44.126Z,95632.25
2023-02-22T10:21:39.513Z,95630.50
2023-02-22T10:24:33.726Z,95624.84
2023-02-22T10:27:01.228Z,95618.97
2023-02-22T10:29:44.762Z,95596.53
2023-02-22T10:32:23.791Z,95596.06
2023-02-22T10:34:53.549Z,95623.84
2023-02-22T10:37:32.202Z,95624.50
2023-02-22T10:40:13.103Z,95615.50
2023-02-22T10:42:39.676Z,95608.75
2023-02-22T10:45:17.827Z,95609.47
2023-02-22T10:47:45.316Z,95607.72
2023-02-22T10:50:14.654Z,95604.69
2023-02-22T10:52:41.143Z,95608.59
2023-02-22T10:55:16.133Z,95612.84
2023-02-22T10:57:46.914Z,95610.28
2023-02-22T11:00:29.457Z,95593.63
2023-02-22T11:02:58.200Z,95599.06
2023-02-22T11:05:39.776Z,95603.56
2023-02-22T11:08:21.512Z,95593.53
2023-02-22T11:10:49.862Z,95571.66
2023-02-22T11:13:35.568Z,95588.22
2023-02-22T11:16:18.636Z,95582.66
2023-02-22T11:18:47.299Z,95565.63
2023-02-22T11:21:22.691Z,95566.91
2023-02-22T11:23:50.347Z,95554.41
2023-02-22T11:26:20.617Z,95549.09
2023-02-22T11:28:50.197Z,95559.88
2023-02-22T11:31:20.881Z,95552.53
2023-02-22T11:34:00.059Z,95555.34
2023-02-22T11:36:40.747Z,95545.16
2023-02-22T11:39:24.446Z,95549.56
2023-02-22T11:41:51.494Z,95550.81
2023-02-22T11:44:29.756Z,95545.19
2023-02-22T11:47:01.317Z,95530.34
2023-02-22T11:49:42.611Z,95533.16
2023-02-22T11:52:20.547Z,95539.53
2023-02-22T11:55:41.897Z,95535.63
2023-02-22T11:58:32.210Z,95525.34
2023-02-22T12:01:17.488Z,95527.97
2023-02-22T12:03:54.198Z,95521.59
2023-02-22T12:06:26.777Z,95526.91
2023-02-22T12:09:18.584Z,95521.78
2023-02-22T12:11:54.915Z,95501.13
2023-02-22T12:14:32.026Z,95514.25
2023-02-22T12:17:14.450Z,95504.59
2023-02-22T12:19:49.240Z,95511.75
2023-02-22T12:22:29.460Z,95512.22
2023-02-22T12:25:36.693Z,95509.91
2023-02-22T12:28:24.907Z,95509.16
2023-02-22T12:31:22.613Z,95500.25
2023-02-22T12:34:07.761Z,95505.22
2023-02-22T12:36:43.453Z,95493.22
2023-02-22T12:39:52.713Z,95494.00
2023-02-22T12:42:42.694Z,95499.00
2023-02-22T12:45:16.889Z,95504.81
2023-02-22T12:47:53.744Z,95502.91
2023-02-22T12:50:25.594Z,95487.63
2023-02-22T12:52:59.635Z,95470.78
2023-02-22T12:55:35.353Z,95483.41
2023-02-22T12:58:18.185Z,95484.34
2023-02-22T13:01:14.887Z,95471.53
2023-02-22T13:03:43.793Z,95482.47
2023-02-22T13:06:27.806Z,95486.03
2023-02-22T13:09:35.188Z,95474.69
2023-02-22T13:12:11.084Z,95484.47
2023-02-22T13:15:10.767Z,95475.59
2023-02-22T13:17:52.087Z,95474.31
2023-02-22T13:20:24.781Z,95468.25
2023-02-22T13:23:07.204Z,95462.16
2023-02-22T13:26:08.020Z,95465.59
2023-02-22T13:28:46.567Z,95464.78
2023-02-22T13:31:36.506Z,95450.56
2023-02-22T13:34:40.064Z,95460.22
2023-02-22T13:37:30.231Z,95448.34
2023-02-22T13:40:16.742Z,95454.31
2023-02-22T13:43:07.228Z,95441.94
2023-02-22T13:45:52.521Z,95449.44
2023-02-22T13:48:22.013Z,95451.50
2023-02-22T13:51:33.233Z,95454.31
2023-02-22T13:54:06.099Z,95439.63
2023-02-22T13:56:32.639Z,95439.78
2023-02-22T13:59:02.448Z,95419.19
2023-02-22T14:01:47.581Z,95444.09
2023-02-22T14:04:29.368Z,95445.34
2023-02-22T14:07:02.393Z,95423.38
2023-02-22T14:09:52.472Z,95449.22
2023-02-22T14:12:31.143Z,95444.22
2023-02-22T14:15:18.706Z,95444.50
2023-02-22T14:17:57.322Z,95439.69
2023-02-22T14:20:32.092Z,95424.66
2023-02-22T14:23:28.148Z,95437.50
2023-02-22T14:25:56.095Z,95431.28
2023-02-22T14:28:54.382Z,95442.66
2023-02-22T14:31:35.863Z,95449.94
2023-02-22T14:34:38.620Z,95448.22
2023-02-22T14:37:11.534Z,95443.56
2023-02-22T14:40:02.069Z,95449.38
2023-02-22T14:42:37.742Z,95449.59
2023-02-22T14:45:24.798Z,95450.56
2023-02-22T14:48:20.399Z,95452.63
2023-02-22T14:51:01.999Z,95451.66
2023-02-22T14:53:43.955Z,95446.03
2023-02-22T14:56:24.544Z,95442.19
2023-02-22T14:59:18.478Z,95442.97
2023-02-22T15:02:01.518Z,95452.97
2023-02-22T15:04:34.862Z,95436.59
2023-02-22T15:07:09.533Z,95427.59
2023-02-22T15:09:37.452Z,95422.59
2023-02-22T15:12:03.935Z,95451.13
2023-02-22T15:14:41.733Z,95448.00
2023-02-22T15:17:16.185Z,95441.59
2023-02-22T15:19:42.789Z,95435.03
2023-02-22T15:22:22.733Z,95441.59
2023-02-22T15:25:01.319Z,95448.78
2023-02-22T15:27:28.524Z,95441.59
2023-02-22T15:30:04.498Z,95445.81
2023-02-22T15:32:31.148Z,95447.28
2023-02-22T15:35:18.502Z,95451.03
2023-02-22T15:37:46.932Z,95424.22
2023-02-22T15:40:16.799Z,95435.44
2023-02-22T15:42:53.071Z,95455.84
2023-02-22T15:45:22.080Z,95439.94
2023-02-22T15:47:49.454Z,95430.88
2023-02-22T15:50:29.493Z,95443.66
2023-02-22T15:53:01.605Z,95452.34
2023-02-22T15:55:35.866Z,95458.09
2023-02-22T15:58:22.261Z,95457.81
2023-02-22T16:00:59.644Z,95452.00
2023-02-22T16:03:28.674Z,95458.38
2023-02-22T16:05:56.959Z,95454.50
2023-02-22T16:08:29.301Z,95439.03
2023-02-22T16:11:38.350Z,95451.19
2023-02-22T16:14:07.442Z,95439.09
2023-02-22T16:16:36.935Z,95453.38
2023-02-22T16:19:35.670Z,95456.13
2023-02-22T16:22:05.228Z,95447.31
2023-02-22T16:24:34.070Z,95458.22
2023-02-22T16:27:12.586Z,95461.91
2023-02-22T16:29:39.098Z,95461.69
2023-02-22T16:32:05.684Z,95466.31
2023-02-22T16:34:32.352Z,95463.13
2023-02-22T16:36:59.258Z,95457.59
2023-02-22T16:39:28.402Z,95441.41
2023-02-22T16:41:57.350Z,95474.28
2023-02-22T16:44:25.369Z,95477.94
2023-02-22T16:46:57.593Z,95478.59
2023-02-22T16:49:24.497Z,95472.56
2023-02-22T16:51:55.163Z,95482.16
2023-02-22T16:54:34.332Z,95483.44
2023-02-22T16:57:02.324Z,95474.09
2023-02-22T16:59:32.658Z,95473.78
2023-02-22T17:01:59.133Z,95479.94
2023-02-22T17:04:26.458Z,95487.47
2023-02-22T17:06:53.035Z,95475.22
2023-02-22T17:09:22.386Z,95477.50
2023-02-22T17:11:51.400Z,95493.38
2023-02-22T17:14:23.135Z,95463.13
2023-02-22T17:16:52.824Z,95474.44
2023-02-22T17:19:22.222Z,95487.31
2023-02-22T17:21:49.681Z,95501.69
2023-02-22T17:24:29.027Z,95499.19
2023-02-22T17:26:57.374Z,95487.28
2023-02-22T17:29:24.227Z,95495.25
2023-02-22T17:31:52.452Z,95505.56
2023-02-22T17:34:18.976Z,95496.28
2023-02-22T17:36:45.654Z,95506.81
2023-02-22T17:39:13.414Z,95502.91
2023-02-22T17:41:40.879Z,95507.97
2023-02-22T17:44:07.754Z,95489.16
2023-02-22T17:46:36.135Z,95489.75
2023-02-22T17:49:03.255Z,95508.50
2023-02-22T17:51:29.834Z,95496.78
2023-02-22T17:53:56.292Z,95502.31
2023-02-22T17:56:22.711Z,95502.09
2023-02-22T17:58:53.199Z,95495.06
2023-02-22T18:01:29.479Z,95497.16
2023-02-22T18:03:58.828Z,95504.25
2023-02-22T18:06:28.479Z,95508.22
2023-02-22T18:08:56.919Z,95500.47
2023-02-22T18:11:26.434Z,95512.66
2023-02-22T18:13:57.220Z,95503.81
2023-02-22T18:16:25.863Z,95512.00
2023-02-22T18:18:53.311Z,95503.34
2023-02-22T18:21:19.989Z,95500.00
2023-02-22T18:23:46.435Z,95507.94
2023-02-22T18:26:18.414Z,95514.53
2023-02-22T18:28:45.042Z,95503.28
2023-02-22T18:31:16.808Z,95496.28
2023-02-22T18:33:45.466Z,95502.03
2023-02-22T18:36:13.211Z,95505.06
2023-02-22T18:38:42.885Z,95493.34
2023-02-22T18:41:15.561Z,95501.53
2023-02-22T18:43:42.810Z,95499.97
2023-02-22T18:46:13.567Z,95512.38
2023-02-22T18:48:40.282Z,95510.28
2023-02-22T18:51:09.877Z,95494.03
2023-02-22T18:53:38.524Z,95499.13
2023-02-22T18:56:13.672Z,95513.31
2023-02-22T18:58:43.091Z,95498.72
2023-02-22T19:01:15.630Z,95509.22
2023-02-22T19:03:42.811Z,95504.25
2023-02-22T19:06:10.007Z,95491.19
2023-02-22T19:08:39.522Z,95506.13
2023-02-22T19:11:09.036Z,95495.41
2023-02-22T19:13:35.589Z,95481.25
2023-02-22T19:16:03.822Z,95510.91
2023-02-22T19:18:30.789Z,95487.59
2023-02-22T19:21:02.969Z,95510.66
2023-02-22T19:23:34.370Z,95496.50
2023-02-22T19:26:02.627Z,95505.44
2023-02-22T19:28:33.970Z,95520.34
2023-02-22T19:31:18.820Z,95516.69
2023-02-22T19:33:47.379Z,95520.91
2023-02-22T19:36:15.869Z,95511.50
2023-02-22T19:38:43.506Z,95514.06
2023-02-22T19:41:19.586Z,95528.00
2023-02-22T19:43:51.631Z,95526.69
2023-02-22T19:46:21.063Z,95516.47
2023-02-22T19:48:48.442Z,95517.25
2023-02-22T19:51:16.537Z,95530.84
2023-02-22T19:53:43.992Z,95540.03
2023-02-22T19:56:16.762Z,95517.47
2023-02-22T19:58:46.002Z,95538.47
2023-02-22T20:01:27.029Z,95545.00
2023-02-22T20:04:00.016Z,95529.00
2023-02-22T20:06:28.986Z,95546.00
2023-02-22T20:08:57.132Z,95534.25
2023-02-22T20:11:24.664Z,95544.16
2023-02-22T20:13:52.189Z,95531.09
2023-02-22T20:16:18.710Z,95527.41
2023-02-22T20:18:46.427Z,95547.84
2023-02-22T20:21:19.989Z,95543.91
2023-02-22T20:23:46.726Z,95533.69
2023-02-22T20:26:20.019Z,95543.91
2023-02-22T20:28:46.777Z,95529.28
2023-02-22T20:31:14.352Z,95521.94
2023-02-22T20:33:42.176Z,95549.19
2023-02-22T20:36:17.119Z,95535.03
2023-02-22T20:38:44.411Z,95546.59
2023-02-22T20:41:19.749Z,95552.91
2023-02-22T20:43:50.149Z,95542.91
2023-02-22T20:46:16.937Z,95531.94
2023-02-22T20:48:43.360Z,95560.22
2023-02-22T20:51:12.500Z,95551.28
2023-02-22T20:53:41.802Z,95559.72
2023-02-22T20:56:15.995Z,95563.66
2023-02-22T20:58:43.093Z,95563.09
2023-02-22T21:01:12.197Z,95550.78
2023-02-22T21:03:38.667Z,95555.78
2023-02-22T21:06:05.786Z,95528.28
2023-02-22T21:08:32.638Z,95520.97
2023-02-22T21:10:59.758Z,95556.84
2023-02-22T21:13:26.304Z,95540.34
2023-02-22T21:15:52.973Z,95555.03
2023-02-22T21:18:20.917Z,95528.84
2023-02-22T21:20:48.482Z,95550.28
2023-02-22T21:23:15.703Z,95540.06
2023-02-22T21:25:52.437Z,95544.56
2023-02-22T21:28:19.008Z,95552.69
2023-02-22T21:30:47.143Z,95555.56
2023-02-22T21:33:15.705Z,95532.00
2023-02-22T21:35:47.097Z,95556.88
2023-02-22T21:38:14.491Z,95546.13
2023-02-22T21:40:42.519Z,95551.09
2023-02-22T21:43:10.584Z,95551.91
2023-02-22T21:45:38.198Z,95526.50
2023-02-22T21:48:05.742Z,95542.47
2023-02-22T21:50:32.599Z,95548.22
2023-02-22T21:52:59.189Z,95560.28
2023-02-22T21:55:25.613Z,95550.84
2023-02-22T21:57:52.437Z,95531.97
2023-02-22T22:00:28.752Z,95540.09
2023-02-22T22:03:08.041Z,95554.53
2023-02-22T22:05:38.872Z,95553.97
2023-02-22T22:08:07.509Z,95539.06
2023-02-22T22:10:36.112Z,95553.22
2023-02-22T22:13:02.604Z,95541.69
2023-02-22T22:15:31.532Z,95528.84
2023-02-22T22:18:05.396Z,95521.00
2023-02-22T22:20:37.789Z,95541.69
2023-02-22T22:23:07.902Z,95549.28
2023-02-22T22:25:38.071Z,95552.94
2023-02-22T22:28:07.462Z,95528.84
2023-02-22T22:30:36.894Z,95543.25
2023-02-22T22:33:11.215Z,95553.47
2023-02-22T22:35:41.853Z,95542.16
2023-02-22T22:38:09.434Z,95554.00
2023-02-22T22:40:38.754Z,95540.34
2023-02-22T22:43:06.090Z,95531.72
2023-02-22T22:45:32.838Z,95543.25
2023-02-22T22:47:59.307Z,95532.00
2023-02-22T22:50:26.343Z,95512.63
2023-02-22T22:52:55.571Z,95543.50
2023-02-22T22:55:24.223Z,95539.84
2023-02-22T22:57:51.803Z,95551.63
2023-02-22T23:00:33.309Z,95551.91
2023-02-22T23:03:00.020Z,95552.94
2023-02-22T23:05:28.598Z,95562.34
2023-02-22T23:07:56.697Z,95551.09
2023-02-22T23:10:29.289Z,95554.78
2023-02-22T23:12:58.683Z,95555.28
2023-02-22T23:15:25.588Z,95551.09
2023-02-22T23:17:55.988Z,95544.31
2023-02-22T23:20:26.398Z,95562.09
2023-02-22T23:22:54.016Z,95565.78
2023-02-22T23:25:21.644Z,95563.94
2023-02-22T23:27:49.084Z,95564.47
2023-02-22T23:30:18.624Z,95569.72
2023-02-22T23:32:46.616Z,95570.53
2023-02-22T23:35:15.447Z,95577.34
2023-02-22T23:37:42.541Z,95574.47
2023-02-22T23:40:17.017Z,95576.56
2023-02-22T23:42:49.113Z,95575.00
2023-02-22T23:45:22.503Z,95551.94
2023-02-22T23:47:57.293Z,95563.47
2023-02-22T23:50:25.651Z,95568.44
2023-02-22T23:52:57.506Z,95574.22
2023-02-22T23:55:31.388Z,95577.88
2023-02-22T23:57:59.427Z,95568.19
